createdAt,value
2023-04-02T00:05:39.882Z,1007.73
2023-04-02T00:15:40.244Z,1007.77
2023-04-02T00:25:40.243Z,1007.81
2023-04-02T00:35:40.468Z,1007.75
2023-04-02T00:45:40.663Z,1007.68
2023-04-02T00:55:40.783Z,1007.62
2023-04-02T01:05:40.991Z,1007.75
2023-04-02T01:15:41.267Z,1008.03
2023-04-02T01:25:41.452Z,1008.10
2023-04-02T01:35:41.690Z,1008.25
2023-04-02T01:45:41.884Z,1008.15
2023-04-02T01:55:42.067Z,1008.18
2023-04-02T02:05:42.274Z,1008.18
2023-04-02T02:15:42.470Z,1008.26
2023-04-02T02:25:42.709Z,1008.14
2023-04-02T02:35:42.940Z,1008.24
2023-04-02T02:45:43.177Z,1008.24
2023-04-02T02:55:43.330Z,1008.27
2023-04-02T03:05:43.546Z,1008.47
2023-04-02T03:15:43.755Z,1008.65
2023-04-02T03:25:43.950Z,1008.63
2023-04-02T03:35:44.191Z,1008.61
2023-04-02T03:45:44.360Z,1008.73
2023-04-02T03:55:44.571Z,1008.83
2023-04-02T04:05:44.765Z,1008.86
2023-04-02T04:15:44.973Z,1008.98
2023-04-02T04:25:45.184Z,1009.15
2023-04-02T04:35:45.477Z,1009.38
2023-04-02T04:45:45.700Z,1009.37
2023-04-02T04:55:45.929Z,1009.52
2023-04-02T05:05:45.939Z,1009.59
2023-04-02T05:15:46.158Z,1009.60
2023-04-02T05:25:46.420Z,1009.68
2023-04-02T05:35:46.463Z,1009.86
2023-04-02T05:45:46.631Z,1009.95
2023-04-02T05:55:46.855Z,1010.02
2023-04-02T06:05:47.046Z,1010.12
2023-04-02T06:15:47.879Z,1010.10
2023-04-02T06:25:47.344Z,1010.09
2023-04-02T06:35:47.590Z,1010.11
2023-04-02T06:45:47.825Z,1010.30
2023-04-02T06:55:48.042Z,1010.48
2023-04-02T07:05:48.224Z,1010.50
2023-04-02T07:15:48.463Z,1010.56
2023-04-02T07:25:48.586Z,1010.63
2023-04-02T07:35:48.829Z,1010.67
2023-04-02T07:45:49.025Z,1010.66
2023-04-02T07:55:49.223Z,1010.77
2023-04-02T08:05:49.421Z,1010.70
2023-04-02T08:15:49.659Z,1010.72
2023-04-02T08:25:49.855Z,1010.76
2023-04-02T08:35:50.084Z,1010.76
2023-04-02T08:45:50.694Z,1010.78
2023-04-02T08:55:50.447Z,1010.80
2023-04-02T09:05:50.641Z,1010.88
2023-04-02T09:15:50.921Z,1010.98
2023-04-02T09:26:02.932Z,1010.96
2023-04-02T09:35:52.500Z,1011.05
2023-04-02T09:45:51.516Z,1011.09
2023-04-02T09:55:51.722Z,1011.14
2023-04-02T10:05:51.905Z,1011.14
2023-04-02T10:15:52.106Z,1011.18
2023-04-02T10:25:52.322Z,1011.20
2023-04-02T10:35:52.560Z,1011.21
2023-04-02T10:45:52.797Z,1011.32
2023-04-02T10:55:52.979Z,1011.36
2023-04-02T11:05:53.189Z,1011.47
2023-04-02T11:15:53.396Z,1011.52
2023-04-02T11:25:53.577Z,1011.60
2023-04-02T11:35:53.777Z,1011.71
2023-04-02T11:45:54.388Z,1011.73
2023-04-02T11:55:54.234Z,1011.84
2023-04-02T12:05:54.436Z,1011.88
2023-04-02T12:15:54.665Z,1011.90
2023-04-02T12:25:54.870Z,1011.94
2023-04-02T12:35:55.186Z,1011.99
2023-04-02T12:45:55.272Z,1011.99
2023-04-02T12:55:55.489Z,1012.01
2023-04-02T13:05:55.545Z,1012.08
2023-04-02T13:15:55.823Z,1012.05
2023-04-02T13:25:56.057Z,1012.06
2023-04-02T13:35:56.170Z,1012.01
2023-04-02T13:45:56.532Z,1012.08
2023-04-02T13:55:56.577Z,1012.19
2023-04-02T14:05:56.754Z,1012.19
2023-04-02T14:15:56.948Z,1012.27
2023-04-02T14:25:57.347Z,1012.27
2023-04-02T14:35:57.244Z,1012.29
2023-04-02T14:45:57.479Z,1012.33
2023-04-02T14:55:57.914Z,1012.32
2023-04-02T15:05:57.942Z,1012.26
2023-04-02T15:15:58.252Z,1012.28
2023-04-02T15:25:58.154Z,1012.32
2023-04-02T15:35:59.253Z,1012.31
2023-04-02T15:45:58.773Z,1012.25
2023-04-02T15:55:58.633Z,1012.27
2023-04-02T16:05:59.052Z,1012.34
2023-04-02T16:15:58.942Z,1012.47
2023-04-02T16:25:59.236Z,1012.57
2023-04-02T16:35:59.568Z,1012.74
2023-04-02T16:45:59.559Z,1012.85
2023-04-02T16:55:59.785Z,1013.02
2023-04-02T17:05:59.896Z,1013.05
2023-04-02T17:16:00.024Z,1013.21
2023-04-02T17:25:59.895Z,1013.44
2023-04-02T17:36:00.463Z,1013.55
2023-04-02T17:46:00.539Z,1013.66
2023-04-02T17:56:02.380Z,1013.86
2023-04-02T18:06:00.767Z,1014.01
2023-04-02T18:16:00.874Z,1014.13
2023-04-02T18:26:00.748Z,1014.22
2023-04-02T18:36:01.885Z,1014.42
2023-04-02T18:46:01.155Z,1014.53
2023-04-02T18:56:01.618Z,1014.55
2023-04-02T19:06:01.952Z,1014.71
2023-04-02T19:16:01.995Z,1014.88
2023-04-02T19:26:02.210Z,1014.95
2023-04-02T19:36:02.469Z,1015.18
2023-04-02T19:46:02.634Z,1015.24
2023-04-02T19:56:02.527Z,1015.42
2023-04-02T20:06:03.031Z,1015.46
2023-04-02T20:16:03.204Z,1015.61
2023-04-02T20:26:03.418Z,1015.73
2023-04-02T20:36:03.568Z,1015.84
2023-04-02T20:46:03.443Z,1015.95
2023-04-02T20:56:03.633Z,1016.14
2023-04-02T21:06:03.853Z,1016.32
2023-04-02T21:16:04.067Z,1016.34
2023-04-02T21:26:04.261Z,1016.35
2023-04-02T21:36:04.466Z,1016.42
2023-04-02T21:46:04.650Z,1016.51
2023-04-02T21:56:04.852Z,1016.64
2023-04-02T22:06:05.064Z,1016.70
2023-04-02T22:16:06.854Z,1016.76
2023-04-02T22:26:05.502Z,1016.69
2023-04-02T22:36:05.699Z,1016.84
2023-04-02T22:46:05.926Z,1016.94
2023-04-02T22:56:06.084Z,1016.91
2023-04-02T23:06:06.279Z,1016.92
2023-04-02T23:16:06.542Z,1016.90
2023-04-02T23:26:06.737Z,1016.91
2023-04-02T23:36:07.030Z,1016.99
2023-04-02T23:46:07.053Z,1016.99
2023-04-02T23:56:07.274Z,1017.04
